createdAt,value
2023-09-28T00:01:39.785Z,50.88
2023-09-28T00:04:08.165Z,50.43
2023-09-28T00:06:37.270Z,50.54
2023-09-28T00:09:06.786Z,50.84
2023-09-28T00:11:35.209Z,50.51
2023-09-28T00:14:02.999Z,50.50
2023-09-28T00:16:33.083Z,50.60
2023-09-28T00:19:00.601Z,50.79
2023-09-28T00:21:29.099Z,50.60
2023-09-28T00:23:57.219Z,50.55
2023-09-28T00:26:27.141Z,50.83
2023-09-28T00:28:54.647Z,50.69
2023-09-28T00:31:23.291Z,50.58
2023-09-28T00:33:51.759Z,50.61
2023-09-28T00:36:19.205Z,50.81
2023-09-28T00:38:49.020Z,50.61
2023-09-28T00:41:16.949Z,50.85
2023-09-28T00:43:47.035Z,50.69
2023-09-28T00:46:16.650Z,50.74
2023-09-28T00:48:54.956Z,50.75
2023-09-28T00:51:22.416Z,50.99
2023-09-28T00:53:52.516Z,50.70
2023-09-28T00:56:22.748Z,50.55
2023-09-28T00:58:52.084Z,50.66
2023-09-28T01:01:20.660Z,50.66
2023-09-28T01:03:48.217Z,50.54
2023-09-28T01:06:16.767Z,50.47
2023-09-28T01:08:44.666Z,50.89
2023-09-28T01:11:13.227Z,50.60
2023-09-28T01:13:40.940Z,50.88
2023-09-28T01:16:10.735Z,50.50
2023-09-28T01:18:38.247Z,50.74
2023-09-28T01:21:08.053Z,50.50
2023-09-28T01:23:37.029Z,50.55
2023-09-28T01:26:05.494Z,50.64
2023-09-28T01:28:33.608Z,50.86
2023-09-28T01:31:02.565Z,50.77
2023-09-28T01:33:31.341Z,50.53
2023-09-28T01:35:59.896Z,50.49
2023-09-28T01:38:32.159Z,50.59
2023-09-28T01:41:02.617Z,50.94
2023-09-28T01:43:30.252Z,50.90
2023-09-28T01:45:58.727Z,50.80
2023-09-28T01:48:26.290Z,51.01
2023-09-28T01:50:54.657Z,50.89
2023-09-28T01:53:24.309Z,50.64
2023-09-28T01:55:53.271Z,50.90
2023-09-28T01:58:22.342Z,50.55
2023-09-28T02:00:50.767Z,50.97
2023-09-28T02:03:18.353Z,50.68
2023-09-28T02:05:46.811Z,50.55
2023-09-28T02:08:14.491Z,50.90
2023-09-28T02:10:43.166Z,51.00
2023-09-28T02:13:10.855Z,50.76
2023-09-28T02:15:43.992Z,50.86
2023-09-28T02:18:11.535Z,50.86
2023-09-28T02:20:40.669Z,50.98
2023-09-28T02:23:10.727Z,50.63
2023-09-28T02:25:39.440Z,50.95
2023-09-28T02:28:06.895Z,50.70
2023-09-28T02:30:35.487Z,50.82
2023-09-28T02:33:07.955Z,50.58
2023-09-28T02:35:36.963Z,50.80
2023-09-28T02:38:04.926Z,50.49
2023-09-28T02:40:34.353Z,50.79
2023-09-28T02:43:01.808Z,50.61
2023-09-28T02:45:30.601Z,50.79
2023-09-28T02:47:58.237Z,50.84
2023-09-28T02:50:28.260Z,50.68
2023-09-28T02:52:55.727Z,50.70
2023-09-28T02:55:24.210Z,50.41
2023-09-28T02:57:51.731Z,50.53
2023-09-28T03:00:32.013Z,50.86
2023-09-28T03:03:00.263Z,50.63
2023-09-28T03:05:31.069Z,50.81
2023-09-28T03:08:00.043Z,50.34
2023-09-28T03:10:30.798Z,50.74
2023-09-28T03:12:59.763Z,50.43
2023-09-28T03:15:27.256Z,50.62
2023-09-28T03:17:57.156Z,50.72
2023-09-28T03:20:26.410Z,50.48
2023-09-28T03:22:56.489Z,50.44
2023-09-28T03:25:24.058Z,50.25
2023-09-28T03:27:54.128Z,50.31
2023-09-28T03:30:22.411Z,50.49
2023-09-28T03:32:51.359Z,50.59
2023-09-28T03:35:20.257Z,50.25
2023-09-28T03:37:49.437Z,50.53
2023-09-28T03:40:19.368Z,50.58
2023-09-28T03:42:49.912Z,50.54
2023-09-28T03:45:21.465Z,50.31
2023-09-28T03:47:51.420Z,50.62
2023-09-28T03:50:20.899Z,50.38
2023-09-28T03:52:48.469Z,50.26
2023-09-28T03:55:20.247Z,50.47
2023-09-28T03:57:48.801Z,50.53
2023-09-28T04:00:19.245Z,50.41
2023-09-28T04:02:52.033Z,50.37
2023-09-28T04:05:21.943Z,50.59
2023-09-28T04:07:52.344Z,50.43
2023-09-28T04:10:24.201Z,50.13
2023-09-28T04:12:54.777Z,50.40
2023-09-28T04:15:24.290Z,50.34
2023-09-28T04:17:53.047Z,50.27
2023-09-28T04:20:21.725Z,50.25
2023-09-28T04:22:50.452Z,49.93
2023-09-28T04:25:21.400Z,49.98
2023-09-28T04:27:52.271Z,50.01
2023-09-28T04:30:23.608Z,50.22
2023-09-28T04:32:53.396Z,49.86
2023-09-28T04:35:22.258Z,49.97
2023-09-28T04:37:51.017Z,50.01
2023-09-28T04:40:25.863Z,49.97
2023-09-28T04:42:56.923Z,49.79
2023-09-28T04:45:25.371Z,49.93
2023-09-28T04:47:53.866Z,50.13
2023-09-28T04:50:23.148Z,50.12
2023-09-28T04:52:52.190Z,50.10
2023-09-28T04:55:20.721Z,50.04
2023-09-28T04:57:49.553Z,49.75
2023-09-28T05:00:19.860Z,50.04
2023-09-28T05:02:48.998Z,49.71
2023-09-28T05:05:18.568Z,50.12
2023-09-28T05:07:47.645Z,49.91
2023-09-28T05:10:16.238Z,50.19
2023-09-28T05:12:44.810Z,50.22
2023-09-28T05:15:14.849Z,50.22
2023-09-28T05:17:44.788Z,50.25
2023-09-28T05:20:14.183Z,50.81
2023-09-28T05:22:45.084Z,49.88
2023-09-28T05:25:13.588Z,49.88
2023-09-28T05:27:42.173Z,50.84
2023-09-28T05:30:13.482Z,50.50
2023-09-28T05:32:41.953Z,50.40
2023-09-28T05:35:12.005Z,51.00
2023-09-28T05:37:40.537Z,50.77
2023-09-28T05:40:11.331Z,51.04
2023-09-28T05:42:40.991Z,51.31
2023-09-28T05:45:11.063Z,51.62
2023-09-28T05:47:39.576Z,51.37
2023-09-28T05:50:09.593Z,51.36
2023-09-28T05:52:39.550Z,51.47
2023-09-28T05:55:09.159Z,51.40
2023-09-28T05:57:37.669Z,51.96
2023-09-28T06:00:11.268Z,51.27
2023-09-28T06:02:40.334Z,51.43
2023-09-28T06:05:11.111Z,51.44
2023-09-28T06:07:41.377Z,52.05
2023-09-28T06:10:10.990Z,51.72
2023-09-28T06:12:39.536Z,51.18
2023-09-28T06:15:10.401Z,51.18
2023-09-28T06:17:39.380Z,51.10
2023-09-28T06:20:10.583Z,51.62
2023-09-28T06:22:41.448Z,51.28
2023-09-28T06:25:10.953Z,51.68
2023-09-28T06:27:40.586Z,52.59
2023-09-28T06:30:10.994Z,52.55
2023-09-28T06:32:39.516Z,52.32
2023-09-28T06:35:10.876Z,52.24
2023-09-28T06:37:41.214Z,52.50
2023-09-28T06:40:11.900Z,52.34
2023-09-28T06:42:42.847Z,52.62
2023-09-28T06:45:13.704Z,52.51
2023-09-28T06:47:55.572Z,52.29
2023-09-28T06:50:28.866Z,52.10
2023-09-28T06:52:58.827Z,52.13
2023-09-28T06:55:27.285Z,52.07
2023-09-28T06:57:56.041Z,52.24
2023-09-28T07:00:24.658Z,51.93
2023-09-28T07:02:55.166Z,51.84
2023-09-28T07:05:24.042Z,52.05
2023-09-28T07:07:52.647Z,51.93
2023-09-28T07:10:22.566Z,51.92
2023-09-28T07:12:51.147Z,52.08
2023-09-28T07:15:19.742Z,52.60
2023-09-28T07:17:48.451Z,52.89
2023-09-28T07:20:16.979Z,52.88
2023-09-28T07:22:45.685Z,52.98
2023-09-28T07:25:14.286Z,53.06
2023-09-28T07:27:45.650Z,53.21
2023-09-28T07:30:15.964Z,52.47
2023-09-28T07:32:44.699Z,52.21
2023-09-28T07:35:13.934Z,52.31
2023-09-28T07:37:43.301Z,51.92
2023-09-28T07:40:13.752Z,51.96
2023-09-28T07:42:42.834Z,52.10
2023-09-28T07:45:13.973Z,52.10
2023-09-28T07:47:42.616Z,51.83
2023-09-28T07:50:16.496Z,52.17
2023-09-28T07:52:45.981Z,52.17
2023-09-28T07:55:15.468Z,52.28
2023-09-28T08:00:20.245Z,52.01
2023-09-28T08:02:48.983Z,52.17
2023-09-28T08:05:19.333Z,52.16
2023-09-28T08:08:00.043Z,52.16
2023-09-28T08:10:36.532Z,52.26
2023-09-28T08:13:05.481Z,52.19
2023-09-28T08:15:37.503Z,52.42
2023-09-28T08:18:06.776Z,52.75
2023-09-28T08:20:36.424Z,52.51
2023-09-28T08:23:07.026Z,52.67
2023-09-28T08:25:36.941Z,52.53
2023-09-28T08:28:06.266Z,52.48
2023-09-28T08:30:36.564Z,52.45
2023-09-28T08:33:05.588Z,52.13
2023-09-28T08:35:34.236Z,52.44
2023-09-28T08:38:02.962Z,52.66
2023-09-28T08:40:31.882Z,52.22
2023-09-28T08:43:04.355Z,52.46
2023-09-28T08:45:33.165Z,52.45
2023-09-28T08:48:04.454Z,52.51
2023-09-28T08:50:38.187Z,52.78
2023-09-28T08:53:07.375Z,52.66
2023-09-28T08:55:36.029Z,52.84
2023-09-28T08:58:05.121Z,52.65
2023-09-28T09:00:34.078Z,52.76
2023-09-28T09:03:05.716Z,52.65
2023-09-28T09:05:34.462Z,52.46
2023-09-28T09:08:03.446Z,52.38
2023-09-28T09:10:32.078Z,52.79
2023-09-28T09:13:00.826Z,52.45
2023-09-28T09:15:29.319Z,52.70
2023-09-28T09:18:01.111Z,52.50
2023-09-28T09:20:31.557Z,52.45
2023-09-28T09:23:13.074Z,52.55
2023-09-28T09:25:45.349Z,52.44
2023-09-28T09:28:15.071Z,52.49
2023-09-28T09:30:43.631Z,52.61
2023-09-28T09:33:15.950Z,52.52
2023-09-28T09:35:46.369Z,52.74
2023-09-28T09:38:15.021Z,52.55
2023-09-28T09:40:43.462Z,52.64
2023-09-28T09:43:12.067Z,52.71
2023-09-28T09:45:42.096Z,52.43
2023-09-28T09:48:11.173Z,52.53
2023-09-28T09:50:40.824Z,52.77
2023-09-28T09:53:10.976Z,52.32
2023-09-28T09:55:45.243Z,52.72
2023-09-28T09:58:17.454Z,52.84
2023-09-28T10:00:45.993Z,52.78
2023-09-28T10:03:14.872Z,52.76
2023-09-28T10:05:43.389Z,52.28
2023-09-28T10:08:13.659Z,52.48
2023-09-28T10:10:42.493Z,52.73
2023-09-28T10:13:11.377Z,52.47
2023-09-28T10:15:39.916Z,52.67
2023-09-28T10:18:08.629Z,52.64
2023-09-28T10:20:37.277Z,52.71
2023-09-28T10:23:18.872Z,52.42
2023-09-28T10:25:59.037Z,52.45
2023-09-28T10:28:28.057Z,52.56
2023-09-28T10:31:11.433Z,52.54
2023-09-28T10:34:01.240Z,52.50
2023-09-28T10:36:30.062Z,52.64
2023-09-28T10:39:15.650Z,52.79
2023-09-28T10:41:48.442Z,52.54
2023-09-28T10:44:17.831Z,52.37
2023-09-28T10:46:48.486Z,52.33
2023-09-28T10:49:17.945Z,52.61
2023-09-28T10:51:46.477Z,52.54
2023-09-28T10:54:16.378Z,52.60
2023-09-28T10:56:45.059Z,52.64
2023-09-28T10:59:13.846Z,52.27
2023-09-28T11:01:43.373Z,52.26
2023-09-28T11:04:14.026Z,52.10
2023-09-28T11:06:43.767Z,52.31
2023-09-28T11:09:14.073Z,52.19
2023-09-28T11:11:44.367Z,52.24
2023-09-28T11:14:13.096Z,52.09
2023-09-28T11:16:43.353Z,52.09
2023-09-28T11:19:11.929Z,52.40
2023-09-28T11:21:40.556Z,52.13
2023-09-28T11:24:09.593Z,52.31
2023-09-28T11:26:38.215Z,51.87
2023-09-28T11:29:09.115Z,51.88
2023-09-28T11:31:38.451Z,52.06
2023-09-28T11:34:07.254Z,51.86
2023-09-28T11:36:35.861Z,51.83
2023-09-28T11:39:04.686Z,52.06
2023-09-28T11:41:33.329Z,52.22
2023-09-28T11:44:01.935Z,52.21
2023-09-28T11:46:32.682Z,51.73
2023-09-28T11:49:06.050Z,51.93
2023-09-28T11:51:35.289Z,51.84
2023-09-28T11:54:04.176Z,51.81
2023-09-28T11:56:32.862Z,52.12
2023-09-28T11:59:01.498Z,52.05
2023-09-28T12:01:33.202Z,51.66
2023-09-28T12:04:01.870Z,51.73
2023-09-28T12:06:30.422Z,51.63
2023-09-28T12:08:59.133Z,52.04
2023-09-28T12:11:27.702Z,51.88
2023-09-28T12:13:56.445Z,52.14
2023-09-28T12:16:27.342Z,51.96
2023-09-28T12:18:58.150Z,51.98
2023-09-28T12:21:26.621Z,51.85
2023-09-28T12:23:57.079Z,52.04
2023-09-28T12:26:26.004Z,51.84
2023-09-28T12:28:55.321Z,52.09
2023-09-28T12:31:25.083Z,51.91
2023-09-28T12:33:54.836Z,51.97
2023-09-28T12:36:25.207Z,51.97
2023-09-28T12:38:53.940Z,52.02
2023-09-28T12:41:22.541Z,52.00
2023-09-28T12:43:51.193Z,51.97
2023-09-28T12:46:19.713Z,51.96
2023-09-28T12:48:50.365Z,52.22
2023-09-28T12:51:18.871Z,52.15
2023-09-28T12:53:48.962Z,52.27
2023-09-28T12:56:18.334Z,51.91
2023-09-28T12:58:47.056Z,52.23
2023-09-28T13:01:15.642Z,52.42
2023-09-28T13:03:44.542Z,52.54
2023-09-28T13:06:13.293Z,52.18
2023-09-28T13:08:41.939Z,52.31
2023-09-28T13:13:44.031Z,48.83
2023-09-28T13:16:14.708Z,49.56
2023-09-28T13:18:43.728Z,49.72
2023-09-28T13:21:14.740Z,49.09
2023-09-28T13:23:43.411Z,46.19
2023-09-28T13:26:15.111Z,44.77
2023-09-28T13:28:45.488Z,44.17
2023-09-28T13:31:15.369Z,45.09
2023-09-28T13:33:49.744Z,43.06
2023-09-28T13:36:20.187Z,42.96
2023-09-28T13:38:50.559Z,42.50
2023-09-28T13:41:26.734Z,42.23
2023-09-28T13:43:55.847Z,42.07
2023-09-28T13:46:24.710Z,41.94
2023-09-28T13:48:53.621Z,43.77
2023-09-28T13:51:22.215Z,45.24
2023-09-28T13:53:50.865Z,45.48
2023-09-28T13:56:20.910Z,45.97
2023-09-28T13:58:49.571Z,44.87
2023-09-28T14:01:18.128Z,44.84
2023-09-28T14:03:47.233Z,44.33
2023-09-28T14:06:15.726Z,45.14
2023-09-28T14:08:44.681Z,43.50
2023-09-28T14:11:14.158Z,43.04
2023-09-28T14:13:44.805Z,45.32
2023-09-28T14:16:13.373Z,43.14
2023-09-28T14:18:43.248Z,41.55
2023-09-28T14:21:12.147Z,41.29
2023-09-28T14:23:41.249Z,41.09
2023-09-28T14:26:10.543Z,41.04
2023-09-28T14:28:39.114Z,40.65
2023-09-28T14:31:09.404Z,40.07
2023-09-28T14:33:39.394Z,40.64
2023-09-28T14:36:08.557Z,40.99
2023-09-28T14:38:37.228Z,40.70
2023-09-28T14:41:06.028Z,41.03
2023-09-28T14:43:34.620Z,41.97
2023-09-28T14:46:04.493Z,41.11
2023-09-28T14:48:34.741Z,40.70
2023-09-28T14:51:03.228Z,39.58
2023-09-28T14:53:31.882Z,40.26
2023-09-28T14:56:00.884Z,41.41
2023-09-28T14:58:29.772Z,42.04
2023-09-28T15:00:58.333Z,40.42
2023-09-28T15:03:27.054Z,41.33
2023-09-28T15:05:57.004Z,40.33
2023-09-28T15:08:25.595Z,41.92
2023-09-28T15:10:54.083Z,42.06
2023-09-28T15:13:23.254Z,41.71
2023-09-28T15:15:51.952Z,40.60
2023-09-28T15:18:20.602Z,40.05
2023-09-28T15:20:49.348Z,40.81
2023-09-28T15:23:19.393Z,41.36
2023-09-28T15:25:48.006Z,40.65
2023-09-28T15:28:17.330Z,40.60
2023-09-28T15:30:52.394Z,40.64
2023-09-28T15:33:21.080Z,40.53
2023-09-28T15:35:49.700Z,41.31
2023-09-28T15:38:19.804Z,40.33
2023-09-28T15:40:48.601Z,41.42
2023-09-28T15:43:17.201Z,40.80
2023-09-28T15:45:47.537Z,40.81
2023-09-28T15:48:16.101Z,40.22
2023-09-28T15:50:44.745Z,39.75
2023-09-28T15:53:13.237Z,40.05
2023-09-28T15:55:43.180Z,40.38
2023-09-28T15:58:11.664Z,41.47
2023-09-28T16:00:40.182Z,41.69
2023-09-28T16:03:08.831Z,42.69
2023-09-28T16:05:37.508Z,42.96
2023-09-28T16:08:08.342Z,43.23
2023-09-28T16:10:37.976Z,43.31
2023-09-28T16:13:07.891Z,43.68
2023-09-28T16:15:36.360Z,43.30
2023-09-28T16:18:06.393Z,43.79
2023-09-28T16:20:35.559Z,43.76
2023-09-28T16:23:04.971Z,43.82
2023-09-28T16:25:33.885Z,44.11
2023-09-28T16:28:02.769Z,44.23
2023-09-28T16:30:32.794Z,44.40
2023-09-28T16:33:01.489Z,44.46
2023-09-28T16:35:30.258Z,44.79
2023-09-28T16:37:58.925Z,44.47
2023-09-28T16:40:28.069Z,44.82
2023-09-28T16:42:56.637Z,44.52
2023-09-28T16:45:25.304Z,44.51
2023-09-28T16:47:56.054Z,44.72
2023-09-28T16:50:24.872Z,45.21
2023-09-28T16:52:53.567Z,45.00
2023-09-28T16:55:22.225Z,44.97
2023-09-28T16:57:50.831Z,45.04
2023-09-28T17:00:20.171Z,45.18
2023-09-28T17:02:50.161Z,44.80
2023-09-28T17:05:20.367Z,44.99
2023-09-28T17:07:48.900Z,45.08
2023-09-28T17:10:19.820Z,45.12
2023-09-28T17:12:48.688Z,45.01
2023-09-28T17:15:17.170Z,45.33
2023-09-28T17:17:45.749Z,45.37
2023-09-28T17:20:14.606Z,45.24
2023-09-28T17:22:44.481Z,45.26
2023-09-28T17:25:13.270Z,45.03
2023-09-28T17:27:41.842Z,45.14
2023-09-28T17:30:12.098Z,45.41
2023-09-28T17:32:42.550Z,45.51
2023-09-28T17:35:12.209Z,45.31
2023-09-28T17:37:41.133Z,45.64
2023-09-28T17:40:12.082Z,45.45
2023-09-28T17:42:40.759Z,45.71
2023-09-28T17:45:11.437Z,45.67
2023-09-28T17:47:40.152Z,45.62
2023-09-28T17:50:09.804Z,46.13
2023-09-28T17:52:38.761Z,46.22
2023-09-28T17:55:08.262Z,45.96
2023-09-28T17:57:38.603Z,45.89
2023-09-28T18:00:11.202Z,46.19
2023-09-28T18:02:40.751Z,46.40
2023-09-28T18:05:10.535Z,46.13
2023-09-28T18:07:39.190Z,46.69
2023-09-28T18:10:09.709Z,46.31
2023-09-28T18:12:39.704Z,46.58
2023-09-28T18:15:10.809Z,46.51
2023-09-28T18:17:39.480Z,46.56
2023-09-28T18:20:10.950Z,46.43
2023-09-28T18:22:40.008Z,46.56
2023-09-28T18:25:11.755Z,46.54
2023-09-28T18:27:41.910Z,46.24
2023-09-28T18:30:11.067Z,46.56
2023-09-28T18:32:39.794Z,46.65
2023-09-28T18:35:10.062Z,46.77
2023-09-28T18:37:38.625Z,46.99
2023-09-28T18:40:09.460Z,47.32
2023-09-28T18:42:38.042Z,46.90
2023-09-28T18:45:09.704Z,47.36
2023-09-28T18:47:38.318Z,47.44
2023-09-28T18:50:08.674Z,47.30
2023-09-28T18:52:37.265Z,47.29
2023-09-28T18:55:07.035Z,47.06
2023-09-28T18:57:37.540Z,47.56
2023-09-28T19:00:12.027Z,47.28
2023-09-28T19:02:41.071Z,47.71
2023-09-28T19:05:11.531Z,47.73
2023-09-28T19:07:40.200Z,47.50
2023-09-28T19:10:09.962Z,47.70
2023-09-28T19:12:39.625Z,48.07
2023-09-28T19:15:12.567Z,48.19
2023-09-28T19:17:41.380Z,48.04
2023-09-28T19:20:12.456Z,48.48
2023-09-28T19:22:41.127Z,48.47
2023-09-28T19:25:11.021Z,48.55
2023-09-28T19:27:40.165Z,47.78
2023-09-28T19:30:11.930Z,47.93
2023-09-28T19:32:40.829Z,48.27
2023-09-28T19:35:11.090Z,47.98
2023-09-28T19:37:41.274Z,48.46
2023-09-28T19:40:11.492Z,48.23
2023-09-28T19:42:41.964Z,48.73
2023-09-28T19:45:13.771Z,48.81
2023-09-28T19:47:42.758Z,48.88
2023-09-28T19:50:13.700Z,48.62
2023-09-28T19:52:42.216Z,48.26
2023-09-28T19:55:12.000Z,48.28
2023-09-28T19:57:40.638Z,48.04
2023-09-28T20:00:13.613Z,48.50
2023-09-28T20:02:42.250Z,48.59
2023-09-28T20:05:12.263Z,48.17
2023-09-28T20:07:42.478Z,48.27
2023-09-28T20:10:12.479Z,48.33
2023-09-28T20:12:41.874Z,48.14
2023-09-28T20:15:12.386Z,47.99
2023-09-28T20:17:41.625Z,48.14
2023-09-28T20:20:12.055Z,47.86
2023-09-28T20:22:55.915Z,47.91
2023-09-28T20:25:26.000Z,47.81
2023-09-28T20:27:55.149Z,47.86
2023-09-28T20:30:25.558Z,48.14
2023-09-28T20:32:54.221Z,48.17
2023-09-28T20:35:23.811Z,48.10
2023-09-28T20:37:52.275Z,47.93
2023-09-28T20:40:21.159Z,48.14
2023-09-28T20:42:49.645Z,47.95
2023-09-28T20:45:18.753Z,48.03
2023-09-28T20:47:48.736Z,48.02
2023-09-28T20:50:18.021Z,47.83
2023-09-28T20:52:46.569Z,47.83
2023-09-28T20:55:15.257Z,48.22
2023-09-28T20:57:44.087Z,48.05
2023-09-28T21:00:14.465Z,48.19
2023-09-28T21:02:43.398Z,47.74
2023-09-28T21:05:14.091Z,47.78
2023-09-28T21:07:45.512Z,47.99
2023-09-28T21:10:14.877Z,47.83
2023-09-28T21:12:43.615Z,47.77
2023-09-28T21:15:13.120Z,47.82
2023-09-28T21:17:42.296Z,48.04
2023-09-28T21:20:15.022Z,47.78
2023-09-28T21:22:43.651Z,48.04
2023-09-28T21:25:13.772Z,47.75
2023-09-28T21:27:42.486Z,47.88
2023-09-28T21:30:12.894Z,48.00
2023-09-28T21:32:41.487Z,47.77
2023-09-28T21:35:11.006Z,47.89
2023-09-28T21:37:42.640Z,48.50
2023-09-28T21:40:12.412Z,48.18
2023-09-28T21:42:41.729Z,48.60
2023-09-28T21:45:11.109Z,48.61
2023-09-28T21:47:40.258Z,48.52
2023-09-28T21:50:09.930Z,48.60
2023-09-28T21:52:38.961Z,48.62
2023-09-28T21:55:10.751Z,48.89
2023-09-28T21:57:39.337Z,48.62
2023-09-28T22:00:31.101Z,48.58
2023-09-28T22:03:01.859Z,48.86
2023-09-28T22:05:30.868Z,48.67
2023-09-28T22:07:59.623Z,49.01
2023-09-28T22:10:30.001Z,48.75
2023-09-28T22:12:59.029Z,48.96
2023-09-28T22:15:27.881Z,49.06
2023-09-28T22:17:56.799Z,48.86
2023-09-28T22:20:25.764Z,48.84
2023-09-28T22:22:54.271Z,48.95
2023-09-28T22:25:22.717Z,48.86
2023-09-28T22:27:52.621Z,49.11
2023-09-28T22:30:21.210Z,49.17
2023-09-28T22:32:49.792Z,48.82
2023-09-28T22:35:18.405Z,48.68
2023-09-28T22:37:46.875Z,48.79
2023-09-28T22:40:27.819Z,48.72
2023-09-28T22:42:58.933Z,48.96
2023-09-28T22:45:27.886Z,48.81
2023-09-28T22:47:57.095Z,48.95
2023-09-28T22:50:25.813Z,48.93
2023-09-28T22:52:54.241Z,48.95
2023-09-28T22:55:23.251Z,48.86
2023-09-28T22:57:52.002Z,49.02
2023-09-28T23:00:21.889Z,48.79
2023-09-28T23:02:50.985Z,49.08
2023-09-28T23:05:19.670Z,49.23
2023-09-28T23:07:48.633Z,49.17
2023-09-28T23:10:17.229Z,48.94
2023-09-28T23:12:45.877Z,48.96
2023-09-28T23:15:15.243Z,49.12
2023-09-28T23:17:46.638Z,48.84
2023-09-28T23:20:16.661Z,49.23
2023-09-28T23:22:45.860Z,49.16
2023-09-28T23:25:15.038Z,48.99
2023-09-28T23:27:47.228Z,48.89
2023-09-28T23:30:19.940Z,49.36
2023-09-28T23:32:51.761Z,49.24
2023-09-28T23:35:24.321Z,48.96
2023-09-28T23:37:56.201Z,49.03
2023-09-28T23:40:26.463Z,49.20
2023-09-28T23:42:55.945Z,48.87
2023-09-28T23:45:29.370Z,49.04
2023-09-28T23:47:59.804Z,48.92
2023-09-28T23:50:28.700Z,48.84
2023-09-28T23:52:57.557Z,48.95
2023-09-28T23:55:26.205Z,49.01
2023-09-28T23:57:55.673Z,48.84
